Time;durP1;ratioP1;P1;durP2;ratioP2;P2;SDS_P1;SDS_P2;PMS_P1;PMS_P2;Temp;Humidity;BMP_temperature;BMP_pressure;BME280_temperature;BME280_humidity;BME280_pressure;Samples;Min_cycle;Max_cycle;Signal;HPM_P1;HPM_P2
2021/10/14 00:00:56;;;;;;;60.70;44.20;;;;;;;2.84;72.94;101093.70;116356;1194;21902;-78
2021/10/14 00:03:26;;;;;;;56.10;40.20;;;;;;;2.85;73.00;101092.27;116254;1195;21883;-77
2021/10/14 00:06:00;;;;;;;57.40;41.30;;;;;;;2.85;73.05;101094.52;116408;1193;21912;-78
2021/10/14 00:08:33;;;;;;;53.20;38.90;;;;;;;2.84;72.94;101092.30;116232;1196;22097;-79
2021/10/14 00:11:03;;;;;;;56.20;40.00;;;;;;;2.83;73.05;101095.52;116290;1193;23441;-78
2021/10/14 00:13:42;;;;;;;54.20;39.40;;;;;;;2.82;73.05;101097.48;116404;1193;21900;-78
2021/10/14 00:16:14;;;;;;;53.40;39.60;;;;;;;2.80;73.04;101094.84;116291;1196;22442;-78
2021/10/14 00:18:53;;;;;;;49.80;34.80;;;;;;;2.79;73.06;101089.17;116248;1196;21897;-79
2021/10/14 00:21:27;;;;;;;51.70;35.50;;;;;;;2.78;73.16;101094.08;116381;1193;23444;-79
2021/10/14 00:24:04;;;;;;;44.60;33.50;;;;;;;2.78;73.22;101088.70;116520;1191;21910;-79
2021/10/14 00:26:37;;;;;;;49.20;34.80;;;;;;;2.76;73.33;101083.59;116280;1195;21888;-78
2021/10/14 00:29:11;;;;;;;48.80;34.40;;;;;;;2.75;73.26;101085.45;116365;1194;22744;-78
2021/10/14 00:31:45;;;;;;;50.80;35.70;;;;;;;2.74;73.35;101091.73;116487;1194;21894;-78
2021/10/14 00:34:26;;;;;;;57.90;41.40;;;;;;;2.73;73.30;101090.92;116400;1192;22864;-79
2021/10/14 00:36:59;;;;;;;66.70;47.30;;;;;;;2.71;73.42;101091.73;116504;1193;21898;-78
2021/10/14 00:39:34;;;;;;;70.90;47.90;;;;;;;2.71;73.46;101092.44;116479;1194;21915;-78
2021/10/14 00:42:09;;;;;;;79.10;54.10;;;;;;;2.71;73.49;101087.95;116318;1194;21911;-78
2021/10/14 00:44:48;;;;;;;79.50;54.00;;;;;;;2.70;73.61;101084.85;116303;1195;22007;-78
2021/10/14 00:47:21;;;;;;;77.60;51.60;;;;;;;2.70;73.86;101086.40;116450;1194;21923;-78
2021/10/14 00:49:52;;;;;;;71.90;50.30;;;;;;;2.71;73.89;101090.71;116374;1195;22145;-78
2021/10/14 00:52:36;;;;;;;84.00;57.40;;;;;;;2.72;73.91;101095.89;116441;1195;22257;-79
2021/10/14 00:55:20;;;;;;;87.50;58.40;;;;;;;2.72;73.93;101092.89;116299;1193;24793;-78
2021/10/14 00:57:54;;;;;;;82.80;58.80;;;;;;;2.72;73.90;101093.58;116316;1193;23571;-78
2021/10/14 01:00:24;;;;;;;76.00;53.20;;;;;;;2.71;73.79;101086.67;116271;1196;22853;-78
2021/10/14 01:02:56;;;;;;;63.40;43.90;;;;;;;2.69;73.76;101083.85;116478;1190;21960;-78
2021/10/14 01:05:26;;;;;;;61.30;41.80;;;;;;;2.69;73.70;101080.61;116243;1197;21902;-78
2021/10/14 01:07:57;;;;;;;;;;;;;;;2.67;73.63;101077.25;116084;1198;23639;-78
2021/10/14 01:10:30;;;;;;;63.50;43.50;;;;;;;2.57;73.76;101073.86;116168;1193;24780;-78
2021/10/14 01:13:07;;;;;;;63.10;44.50;;;;;;;2.53;73.86;101070.85;116102;1195;22203;-77
2021/10/14 01:15:44;;;;;;;68.90;47.20;;;;;;;2.51;73.88;101072.34;116302;1195;21901;-78
2021/10/14 01:18:16;;;;;;;68.50;49.40;;;;;;;2.50;73.85;101071.20;116466;1191;22901;-78
2021/10/14 01:20:46;;;;;;;70.70;51.10;;;;;;;2.50;73.86;101070.16;116438;1195;23995;-78
2021/10/14 01:23:17;;;;;;;76.60;55.10;;;;;;;2.50;73.97;101069.30;116462;1195;22939;-79
2021/10/14 01:25:48;;;;;;;74.00;52.40;;;;;;;2.51;74.06;101067.33;116419;1195;21889;-78
2021/10/14 01:28:17;;;;;;;71.50;51.70;;;;;;;2.49;73.99;101069.67;116516;1195;21886;-77
2021/10/14 01:30:50;;;;;;;68.30;51.30;;;;;;;2.46;73.88;101060.52;116680;1192;22898;-77
2021/10/14 01:33:34;;;;;;;70.20;52.80;;;;;;;2.45;74.11;101056.38;116758;1189;21891;-78
2021/10/14 01:36:06;;;;;;;73.00;53.10;;;;;;;2.47;74.29;101055.42;116889;1188;21889;-77
2021/10/14 01:38:40;;;;;;;73.70;52.20;;;;;;;2.48;74.35;101054.45;116945;1189;22912;-77
2021/10/14 01:41:10;;;;;;;73.60;52.90;;;;;;;2.48;74.25;101049.45;116837;1189;21895;-78
2021/10/14 01:43:43;;;;;;;69.00;50.60;;;;;;;2.47;74.25;101052.62;116875;1188;21890;-78
2021/10/14 01:46:22;;;;;;;65.60;49.60;;;;;;;2.48;74.34;101051.87;116922;1187;21880;-77
2021/10/14 01:48:59;;;;;;;73.50;51.20;;;;;;;2.49;74.37;101050.78;116930;1189;21903;-78
2021/10/14 01:51:28;;;;;;;69.10;49.80;;;;;;;2.47;74.35;101047.55;116892;1189;23494;-77
2021/10/14 01:53:58;;;;;;;71.20;50.00;;;;;;;2.48;74.36;101045.63;116509;1187;22930;-77
2021/10/14 01:56:31;;;;;;;71.40;49.40;;;;;;;2.49;74.43;101048.14;116602;1192;22657;-78
2021/10/14 01:59:01;;;;;;;68.80;49.90;;;;;;;2.50;74.49;101046.87;116738;1190;21911;-78
2021/10/14 02:01:32;;;;;;;66.50;47.80;;;;;;;2.50;74.33;101043.41;116728;1190;22913;-78
2021/10/14 02:04:03;;;;;;;66.10;46.70;;;;;;;2.50;74.40;101043.92;116472;1194;21902;-78
2021/10/14 02:06:35;;;;;;;67.00;49.00;;;;;;;2.49;74.38;101045.72;116485;1193;22132;-78
2021/10/14 02:09:07;;;;;;;66.90;47.20;;;;;;;2.47;74.45;101051.90;116503;1193;23542;-78
2021/10/14 02:11:40;;;;;;;67.70;47.40;;;;;;;2.47;74.44;101051.90;116536;1191;21891;-78
2021/10/14 02:14:18;;;;;;;64.00;47.10;;;;;;;2.46;74.48;101051.46;116799;1191;21875;-77
2021/10/14 02:16:57;;;;;;;66.70;49.40;;;;;;;2.45;74.50;101052.61;116622;1191;23442;-78
2021/10/14 02:19:38;;;;;;;68.80;47.40;;;;;;;2.47;74.72;101056.27;116825;1191;22930;-79
2021/10/14 02:22:16;;;;;;;63.00;46.60;;;;;;;2.47;74.66;101060.98;116748;1191;21897;-77
2021/10/14 02:24:46;;;;;;;65.80;47.70;;;;;;;2.48;74.67;101066.48;116688;1191;21919;-78
2021/10/14 02:27:21;;;;;;;65.90;47.10;;;;;;;2.50;74.72;101069.81;116793;1187;23848;-79
2021/10/14 02:29:50;;;;;;;66.80;47.00;;;;;;;2.51;74.76;101064.86;116473;1192;22913;-74
2021/10/14 02:32:20;;;;;;;69.30;48.40;;;;;;;2.55;74.94;101063.22;116484;1193;22851;-73
2021/10/14 02:34:55;;;;;;;59.10;45.40;;;;;;;2.59;75.01;101061.91;116458;1193;23482;-74
2021/10/14 02:37:26;;;;;;;55.40;42.10;;;;;;;2.63;75.10;101060.95;116565;1191;21905;-79
2021/10/14 02:39:57;;;;;;;60.00;43.50;;;;;;;2.66;75.05;101061.64;116563;1190;22365;-78
2021/10/14 02:42:26;;;;;;;52.60;40.70;;;;;;;2.69;75.11;101064.08;116528;1193;21898;-78
2021/10/14 02:44:57;;;;;;;49.40;38.00;;;;;;;2.71;75.13;101068.44;116519;1193;23190;-79
2021/10/14 02:47:29;;;;;;;52.80;40.00;;;;;;;2.71;74.91;101071.05;116591;1191;22090;-79
2021/10/14 02:49:58;;;;;;;50.60;36.80;;;;;;;2.68;74.86;101072.45;117106;1188;24825;-79
2021/10/14 02:52:29;;;;;;;50.20;37.70;;;;;;;2.66;75.01;101068.26;116794;1191;23441;-80
2021/10/14 02:54:58;;;;;;;52.40;40.30;;;;;;;2.68;75.15;101073.52;117041;1191;21890;-79
2021/10/14 02:57:29;;;;;;;50.90;38.50;;;;;;;2.71;75.34;101072.80;116517;1193;24119;-77
2021/10/14 02:59:59;;;;;;;53.70;41.80;;;;;;;2.74;75.31;101072.05;116519;1190;23444;-77
2021/10/14 03:02:29;;;;;;;51.30;38.60;;;;;;;2.77;75.29;101075.73;116500;1194;21880;-77
2021/10/14 03:05:02;;;;;;;54.00;38.10;;;;;;;2.77;75.09;101075.39;116458;1190;21899;-77
2021/10/14 03:07:31;;;;;;;49.20;37.70;;;;;;;2.77;75.06;101074.52;116488;1194;22933;-78
2021/10/14 03:10:04;;;;;;;51.10;38.80;;;;;;;2.77;75.06;101081.09;116372;1194;23542;-77
2021/10/14 03:12:34;;;;;;;48.40;35.50;;;;;;;2.77;74.93;101080.94;116076;1197;21906;-78
2021/10/14 03:15:06;;;;;;;45.60;34.40;;;;;;;2.75;74.95;101077.55;116233;1196;21900;-80
2021/10/14 03:17:35;;;;;;;51.00;36.30;;;;;;;2.75;75.11;101080.55;116484;1193;22051;-80
2021/10/14 03:20:05;;;;;;;48.60;35.50;;;;;;;2.75;75.22;101078.98;116310;1195;23351;-80
2021/10/14 03:22:35;;;;;;;48.70;36.50;;;;;;;2.77;75.21;101078.50;116202;1198;23565;-78
2021/10/14 03:25:07;;;;;;;46.80;35.70;;;;;;;2.79;75.26;101079.20;116227;1196;21935;-77
2021/10/14 03:27:36;;;;;;;44.00;34.50;;;;;;;2.82;75.26;101080.95;115968;1200;23554;-78
2021/10/14 03:30:07;;;;;;;41.70;33.40;;;;;;;2.84;75.23;101080.14;115966;1201;21893;-78
2021/10/14 03:32:36;;;;;;;41.50;31.20;;;;;;;2.86;75.28;101074.79;115912;1201;22019;-78
2021/10/14 03:35:07;;;;;;;36.80;30.60;;;;;;;2.86;75.23;101072.52;115265;1204;22724;-78
2021/10/14 03:37:40;;;;;;;40.60;31.30;;;;;;;2.87;75.19;101072.12;115459;1204;21904;-80
2021/10/14 03:40:14;;;;;;;38.80;30.10;;;;;;;2.88;75.23;101069.61;115369;1203;21921;-79
2021/10/14 03:42:43;;;;;;;33.80;27.70;;;;;;;2.88;75.20;101069.42;115543;1203;21973;-81
2021/10/14 03:45:13;;;;;;;39.50;30.20;;;;;;;2.89;75.30;101067.81;115736;1198;21895;-78
2021/10/14 03:47:42;;;;;;;37.70;28.90;;;;;;;2.90;75.34;101069.69;115994;1198;21916;-78
2021/10/14 03:50:12;;;;;;;37.80;29.50;;;;;;;2.90;75.33;101072.95;115942;1195;21880;-79
2021/10/14 03:52:42;;;;;;;33.70;25.50;;;;;;;2.92;75.52;101075.45;116138;1195;21904;-78
2021/10/14 03:55:12;;;;;;;31.50;25.40;;;;;;;2.94;75.56;101077.25;116317;1192;21902;-79
2021/10/14 03:57:42;;;;;;;40.00;29.90;;;;;;;2.93;75.39;101077.08;116583;1192;23387;-79
2021/10/14 04:00:14;;;;;;;35.10;28.30;;;;;;;2.92;75.25;101078.38;116529;1194;22956;-78
2021/10/14 04:02:45;;;;;;;35.50;26.60;;;;;;;2.91;75.36;101080.73;116502;1183;21869;-80
2021/10/14 04:05:15;;;;;;;36.80;28.90;;;;;;;2.92;75.41;101083.64;116366;1194;21904;-80
2021/10/14 04:07:45;;;;;;;35.50;26.40;;;;;;;2.93;75.53;101080.94;116588;1193;21899;-78
2021/10/14 04:10:19;;;;;;;35.90;28.80;;;;;;;2.94;75.64;101077.21;116487;1194;23546;-78
2021/10/14 04:12:48;;;;;;;33.20;28.10;;;;;;;2.90;75.62;101076.05;116519;1192;22764;-77
2021/10/14 04:15:20;;;;;;;34.10;28.10;;;;;;;2.86;75.58;101076.69;116306;1193;21896;-78
2021/10/14 04:17:51;;;;;;;37.10;28.40;;;;;;;2.80;75.66;101076.04;116391;1192;24183;-79
2021/10/14 04:20:27;;;;;;;31.20;24.40;;;;;;;2.75;75.88;101079.46;116788;1191;23582;-79
2021/10/14 04:23:02;;;;;;;30.80;26.00;;;;;;;2.74;76.11;101076.24;116479;1193;21917;-78
2021/10/14 04:25:38;;;;;;;33.70;26.20;;;;;;;2.75;76.31;101076.73;116499;1193;21873;-78
2021/10/14 04:28:19;;;;;;;32.90;26.10;;;;;;;2.76;76.49;101075.73;116542;1190;21904;-78
2021/10/14 04:30:57;;;;;;;30.70;26.40;;;;;;;2.75;76.44;101077.60;116529;1193;21875;-78
2021/10/14 04:33:38;;;;;;;32.20;25.40;;;;;;;2.73;76.47;101077.21;116564;1191;22889;-78
2021/10/14 04:36:26;;;;;;;34.10;26.70;;;;;;;2.71;76.56;101068.96;116578;1191;21879;-77
2021/10/14 04:39:04;;;;;;;31.60;24.10;;;;;;;2.69;76.72;101066.47;116592;1191;22591;-78
2021/10/14 04:41:43;;;;;;;29.10;23.20;;;;;;;2.66;76.69;101069.63;116604;1191;22437;-78
2021/10/14 04:44:24;;;;;;;26.20;22.50;;;;;;;2.65;76.83;101076.83;116558;1192;22006;-78
2021/10/14 04:47:04;;;;;;;29.30;21.80;;;;;;;2.67;77.07;101076.05;116580;1188;21896;-78
2021/10/14 04:49:48;;;;;;;30.40;23.10;;;;;;;2.69;77.26;101074.48;116813;1191;21903;-78
2021/10/14 04:52:51;;;;;;;29.90;22.20;;;;;;;2.69;77.39;101076.80;116676;1193;24000;-79
2021/10/14 04:55:28;;;;;;;25.50;20.10;;;;;;;2.70;77.54;101075.84;116622;1190;22766;-79
2021/10/14 04:58:01;;;;;;;25.10;20.10;;;;;;;2.73;77.66;101073.74;116690;1193;23471;-77
2021/10/14 05:00:31;;;;;;;27.40;20.40;;;;;;;2.76;77.71;101068.84;116331;1182;21881;-77
2021/10/14 05:03:10;;;;;;;25.40;20.40;;;;;;;2.80;77.86;101070.64;116343;1195;21896;-78
2021/10/14 05:05:41;;;;;;;26.70;21.40;;;;;;;2.88;77.97;101071.39;116345;1183;21885;-78
2021/10/14 05:08:12;;;;;;;26.40;19.00;;;;;;;2.90;77.98;101072.44;116507;1193;21888;-78
2021/10/14 05:10:50;;;;;;;23.00;18.40;;;;;;;2.94;78.09;101071.43;116252;1197;21896;-78
2021/10/14 05:13:30;;;;;;;26.20;18.80;;;;;;;3.00;78.14;101068.95;116281;1193;21987;-77
2021/10/14 05:16:08;;;;;;;24.10;19.00;;;;;;;3.07;78.28;101071.48;115930;1200;21894;-79
2021/10/14 05:18:48;;;;;;;28.20;19.10;;;;;;;3.14;78.50;101071.17;116082;1201;21914;-81
2021/10/14 05:21:24;;;;;;;28.70;20.80;;;;;;;3.23;78.67;101068.50;116291;1198;21903;-75
2021/10/14 05:23:59;;;;;;;25.50;21.40;;;;;;;3.33;78.72;101070.44;116289;1196;21985;-75
2021/10/14 05:26:30;;;;;;;27.10;21.70;;;;;;;3.44;78.76;101076.30;116254;1196;21919;-75
2021/10/14 05:29:00;;;;;;;28.30;19.70;;;;;;;3.54;78.78;101078.77;116235;1197;22056;-75
2021/10/14 05:31:30;;;;;;;23.70;18.20;;;;;;;3.64;78.84;101074.80;116270;1196;21888;-75
2021/10/14 05:33:59;;;;;;;27.20;19.00;;;;;;;3.71;78.76;101077.05;116229;1193;22996;-74
2021/10/14 05:36:29;;;;;;;24.80;20.50;;;;;;;3.79;78.64;101075.67;116680;1181;21978;-74
2021/10/14 05:39:00;;;;;;;31.00;23.30;;;;;;;3.86;78.54;101076.58;117195;1188;21885;-75
2021/10/14 05:41:29;;;;;;;34.70;26.60;;;;;;;3.89;78.28;101075.84;117089;1188;21930;-76
2021/10/14 05:44:04;;;;;;;28.60;25.50;;;;;;;3.93;78.23;101076.64;117152;1188;21890;-74
2021/10/14 05:46:34;;;;;;;30.50;23.60;;;;;;;3.97;78.22;101078.25;116873;1187;21905;-75
2021/10/14 05:49:04;;;;;;;27.40;21.30;;;;;;;4.03;78.27;101078.70;116801;1189;21890;-75
2021/10/14 05:51:33;;;;;;;21.70;17.00;;;;;;;4.06;78.14;101078.13;116987;1190;23468;-75
2021/10/14 05:54:02;;;;;;;21.20;18.90;;;;;;;4.09;78.13;101074.23;116835;1190;22656;-75
2021/10/14 05:56:32;;;;;;;27.40;18.50;;;;;;;4.13;78.18;101068.77;116865;1187;22900;-75
2021/10/14 05:59:01;;;;;;;27.10;18.60;;;;;;;4.16;78.09;101066.77;116807;1188;21973;-75
2021/10/14 06:01:30;;;;;;;25.60;18.60;;;;;;;4.21;78.12;101064.48;116863;1190;22926;-74
2021/10/14 06:04:00;;;;;;;36.10;25.30;;;;;;;4.27;78.22;101055.17;116845;1188;23502;-75
2021/10/14 06:06:29;;;;;;;36.20;30.20;;;;;;;4.31;78.14;101053.16;116808;1191;21907;-74
2021/10/14 06:09:05;;;;;;;27.20;24.30;;;;;;;4.32;77.99;101055.87;116774;1190;21959;-75
2021/10/14 06:11:34;;;;;;;35.50;24.00;;;;;;;4.36;78.09;101061.15;116731;1188;22893;-74
2021/10/14 06:14:03;;;;;;;30.30;20.90;;;;;;;4.43;78.25;101058.91;116790;1190;23970;-75
2021/10/14 06:16:33;;;;;;;38.10;24.70;;;;;;;4.52;78.35;101058.79;116883;1191;22730;-75
2021/10/14 06:19:02;;;;;;;49.80;28.50;;;;;;;4.61;78.37;101064.60;116866;1190;21997;-74
2021/10/14 06:21:31;;;;;;;40.30;26.80;;;;;;;4.68;78.40;101065.63;116614;1190;22919;-74
2021/10/14 06:24:01;;;;;;;44.40;27.10;;;;;;;4.76;78.29;101068.20;116478;1193;21909;-75
2021/10/14 06:26:30;;;;;;;39.10;26.60;;;;;;;4.81;77.98;101067.36;116303;1195;23548;-75
2021/10/14 06:28:59;;;;;;;42.10;28.40;;;;;;;4.85;77.94;101068.61;116448;1195;21961;-75
2021/10/14 06:31:28;;;;;;;68.60;53.40;;;;;;;4.91;78.01;101070.94;116259;1194;22924;-75
2021/10/14 06:33:57;;;;;;;80.80;71.10;;;;;;;4.99;78.05;101072.98;116413;1193;22308;-75
2021/10/14 06:36:27;;;;;;;31.40;25.20;;;;;;;5.08;78.00;101075.98;116219;1195;23475;-75
2021/10/14 06:38:56;;;;;;;26.50;21.80;;;;;;;5.12;77.59;101077.25;116437;1193;21917;-74
2021/10/14 06:41:26;;;;;;;28.70;21.40;;;;;;;5.14;77.51;101079.31;116508;1190;21897;-75
2021/10/14 06:44:02;;;;;;;25.80;20.20;;;;;;;5.19;77.39;101078.97;116903;1175;21877;-75
2021/10/14 06:46:31;;;;;;;49.30;32.40;;;;;;;5.22;77.31;101074.76;117143;1188;21863;-74
2021/10/14 06:49:03;;;;;;;35.20;24.70;;;;;;;5.27;77.37;101071.55;116985;1178;21945;-74
2021/10/14 06:51:33;;;;;;;36.60;27.80;;;;;;;5.32;77.27;101072.79;116952;1190;22939;-77
2021/10/14 06:54:02;;;;;;;39.20;27.80;;;;;;;5.29;76.73;101072.31;116842;1191;21882;-78
2021/10/14 06:56:32;;;;;;;58.00;37.20;;;;;;;5.25;76.62;101071.35;116795;1190;21921;-78
2021/10/14 06:59:01;;;;;;;53.30;35.70;;;;;;;5.25;76.72;101075.76;116982;1190;21910;-78
2021/10/14 07:01:30;;;;;;;47.40;34.80;;;;;;;5.26;76.72;101076.05;116842;1190;22002;-77
2021/10/14 07:04:01;;;;;;;51.40;36.50;;;;;;;5.28;76.83;101076.37;116809;1190;23563;-78
2021/10/14 07:06:30;;;;;;;46.00;32.00;;;;;;;5.31;76.75;101078.27;116775;1190;22298;-77
2021/10/14 07:09:00;;;;;;;53.90;37.10;;;;;;;5.34;76.92;101074.05;116849;1187;21876;-77
2021/10/14 07:11:31;;;;;;;44.10;34.40;;;;;;;5.40;77.14;101074.24;117120;1189;23549;-77
2021/10/14 07:14:00;;;;;;;52.10;39.70;;;;;;;5.49;77.32;101073.02;117076;1188;22630;-77
2021/10/14 07:16:29;;;;;;;41.60;32.70;;;;;;;5.58;77.45;101067.96;116944;1187;21922;-77
2021/10/14 07:18:59;;;;;;;40.60;30.30;;;;;;;5.69;77.51;101072.70;116959;1187;21939;-77
2021/10/14 07:21:28;;;;;;;32.10;26.40;;;;;;;5.79;77.47;101071.59;116975;1188;23538;-78
2021/10/14 07:23:57;;;;;;;35.60;26.40;;;;;;;5.90;77.61;101070.22;116873;1189;22813;-77
2021/10/14 07:26:27;;;;;;;43.50;28.90;;;;;;;6.03;77.62;101069.80;116863;1189;21883;-78
2021/10/14 07:28:57;;;;;;;37.90;26.70;;;;;;;6.15;77.50;101074.81;117271;1181;21906;-82
2021/10/14 07:31:26;;;;;;;35.60;26.20;;;;;;;6.22;77.19;101075.64;116903;1189;23543;-74
2021/10/14 07:33:55;;;;;;;33.90;26.50;;;;;;;6.30;77.09;101069.60;116730;1191;23685;-74
2021/10/14 07:36:24;;;;;;;45.90;28.10;;;;;;;6.38;77.04;101067.69;116569;1193;23468;-74
2021/10/14 07:38:54;;;;;;;32.00;24.90;;;;;;;6.49;77.06;101071.71;116540;1193;23454;-75
2021/10/14 07:41:24;;;;;;;31.60;24.80;;;;;;;6.59;76.77;101072.47;116349;1195;21889;-74
2021/10/14 07:43:53;;;;;;;30.40;24.00;;;;;;;6.66;76.49;101070.88;116416;1195;22872;-75
2021/10/14 07:46:22;;;;;;;28.60;21.60;;;;;;;6.74;76.49;101071.27;116067;1198;23565;-76
2021/10/14 07:48:52;;;;;;;28.50;20.50;;;;;;;6.82;76.35;101073.00;116126;1198;21968;-75
2021/10/14 07:51:21;;;;;;;22.40;19.90;;;;;;;6.91;76.26;101068.11;116181;1198;21891;-76
2021/10/14 07:53:51;;;;;;;33.30;27.90;;;;;;;7.02;76.04;101071.59;115995;1196;21912;-74
2021/10/14 07:56:20;;;;;;;30.70;23.60;;;;;;;7.09;75.75;101072.89;116415;1193;23471;-76
2021/10/14 07:58:50;;;;;;;34.70;20.80;;;;;;;7.15;75.41;101075.38;116476;1195;22212;-78
2021/10/14 08:01:20;;;;;;;57.30;49.30;;;;;;;7.21;75.27;101075.77;116789;1193;21889;-78
2021/10/14 08:03:53;;;;;;;25.00;18.90;;;;;;;7.29;75.22;101075.80;116597;1190;21903;-78
2021/10/14 08:06:25;;;;;;;27.10;19.40;;;;;;;7.34;74.93;101076.27;116820;1191;22076;-77
2021/10/14 08:08:56;;;;;;;20.70;17.30;;;;;;;7.39;74.66;101072.70;116552;1193;21911;-78
2021/10/14 08:11:25;;;;;;;29.10;19.40;;;;;;;7.42;74.45;101073.61;116513;1192;21888;-77
2021/10/14 08:13:54;;;;;;;24.10;19.60;;;;;;;7.47;74.40;101067.74;116503;1193;21902;-78
2021/10/14 08:16:24;;;;;;;28.80;23.80;;;;;;;7.54;74.38;101071.93;116265;1193;21924;-78
2021/10/14 08:18:53;;;;;;;24.10;16.80;;;;;;;7.61;74.35;101067.45;116294;1195;21902;-79
2021/10/14 08:21:22;;;;;;;23.40;18.10;;;;;;;7.68;74.18;101070.76;116237;1195;22222;-78
2021/10/14 08:23:51;;;;;;;29.50;22.10;;;;;;;7.73;73.99;101072.42;116302;1193;21906;-78
2021/10/14 08:26:21;;;;;;;33.10;25.40;;;;;;;7.79;73.83;101068.20;116039;1196;22726;-78
2021/10/14 08:28:50;;;;;;;39.60;33.70;;;;;;;7.84;73.72;101066.02;116324;1196;23606;-78
2021/10/14 08:31:21;;;;;;;34.00;22.20;;;;;;;7.93;73.77;101061.42;116148;1196;24178;-77
2021/10/14 08:33:52;;;;;;;27.90;22.90;;;;;;;7.98;73.50;101059.56;116196;1196;21972;-78
2021/10/14 08:36:21;;;;;;;22.40;19.70;;;;;;;8.06;73.60;101062.35;116365;1193;22924;-78
2021/10/14 08:38:50;;;;;;;23.80;21.20;;;;;;;8.18;73.74;101055.87;116266;1195;22356;-78
2021/10/14 08:41:20;;;;;;;34.90;27.50;;;;;;;8.33;73.79;101056.66;116467;1193;22080;-77
2021/10/14 08:43:51;;;;;;;24.50;20.80;;;;;;;8.49;73.80;101056.46;116286;1192;21889;-77
2021/10/14 08:46:21;;;;;;;26.30;22.00;;;;;;;8.62;73.44;101054.45;116539;1190;21902;-78
2021/10/14 08:48:51;;;;;;;29.60;22.80;;;;;;;8.74;72.99;101054.62;116643;1193;22963;-78
2021/10/14 08:51:21;;;;;;;24.40;18.50;;;;;;;8.86;72.72;101054.23;116488;1192;21885;-78
2021/10/14 08:53:51;;;;;;;22.60;17.40;;;;;;;8.92;71.82;101052.05;116728;1192;21890;-78
2021/10/14 08:56:20;;;;;;;27.60;21.40;;;;;;;8.94;71.44;101046.57;116513;1192;24139;-79
2021/10/14 08:58:50;;;;;;;21.10;17.10;;;;;;;9.02;71.57;101044.13;116562;1190;21989;-78
2021/10/14 09:01:19;;;;;;;18.70;16.10;;;;;;;9.11;71.37;101046.33;116525;1192;21914;-78
2021/10/14 09:03:49;;;;;;;22.20;17.10;;;;;;;9.18;70.96;101047.23;116541;1189;21896;-78
2021/10/14 09:06:22;;;;;;;18.90;15.60;;;;;;;9.18;70.23;101046.90;116859;1189;21952;-79
2021/10/14 09:08:57;;;;;;;32.80;18.10;;;;;;;9.21;70.43;101039.23;116913;1189;23538;-77
2021/10/14 09:11:28;;;;;;;26.60;20.50;;;;;;;9.22;70.04;101041.25;116842;1191;22554;-77
2021/10/14 09:14:02;;;;;;;30.00;21.90;;;;;;;9.19;69.55;101040.85;116786;1191;22093;-79
2021/10/14 09:16:34;;;;;;;39.00;28.50;;;;;;;9.13;69.44;101037.36;116819;1191;21884;-78
2021/10/14 09:19:19;;;;;;;34.10;25.60;;;;;;;9.13;69.61;101034.16;116900;1187;21930;-78
2021/10/14 09:22:01;;;;;;;36.20;27.50;;;;;;;9.14;69.48;101032.17;116771;1191;21902;-79
2021/10/14 09:24:32;;;;;;;33.10;28.70;;;;;;;9.16;69.84;101039.13;116676;1191;23614;-79
2021/10/14 09:27:06;;;;;;;23.50;19.30;;;;;;;9.20;69.64;101037.03;116873;1186;23615;-79
2021/10/14 09:29:38;;;;;;;24.50;20.00;;;;;;;9.22;69.55;101035.30;116574;1191;21964;-78
2021/10/14 09:32:18;;;;;;;26.00;21.60;;;;;;;9.23;69.44;101037.52;116788;1191;21895;-80
2021/10/14 09:34:50;;;;;;;27.80;22.80;;;;;;;9.25;69.54;101035.73;116524;1193;22926;-77
2021/10/14 09:37:39;;;;;;;29.30;21.60;;;;;;;9.28;69.54;101037.02;116506;1193;22345;-78
2021/10/14 09:40:11;;;;;;;27.20;23.60;;;;;;;9.36;69.86;101042.23;116245;1197;21948;-77
2021/10/14 09:43:03;;;;;;;29.20;25.10;;;;;;;9.43;69.93;101036.46;116263;1197;22586;-77
2021/10/14 09:45:35;;;;;;;30.00;25.90;;;;;;;9.50;69.73;101033.41;116225;1193;23454;-79
2021/10/14 09:48:04;;;;;;;28.10;23.20;;;;;;;9.54;69.73;101030.03;116317;1195;22846;-78
2021/10/14 09:50:46;;;;;;;26.20;21.60;;;;;;;9.60;69.82;101032.04;116520;1195;22937;-78
2021/10/14 09:53:24;;;;;;;31.60;22.20;;;;;;;9.64;69.49;101035.19;116436;1193;22913;-78
2021/10/14 09:55:55;;;;;;;31.70;26.70;;;;;;;9.62;69.16;101032.00;116463;1194;21887;-77
2021/10/14 09:58:25;;;;;;;28.70;24.90;;;;;;;9.59;69.25;101033.08;116458;1193;23421;-77
2021/10/14 10:00:56;;;;;;;24.20;21.80;;;;;;;9.63;69.73;101033.01;116462;1193;23687;-78
2021/10/14 10:03:27;;;;;;;29.30;26.20;;;;;;;9.69;69.53;101028.83;116786;1193;22920;-76
2021/10/14 10:05:56;;;;;;;30.10;27.10;;;;;;;9.69;69.42;101027.90;116591;1194;22632;-78
2021/10/14 10:08:34;;;;;;;27.10;24.30;;;;;;;9.72;69.51;101023.73;116518;1194;21927;-77
2021/10/14 10:11:11;;;;;;;20.90;18.70;;;;;;;9.80;69.59;101020.43;116480;1194;22204;-78
2021/10/14 10:13:53;;;;;;;24.30;18.70;;;;;;;9.83;69.17;101016.33;116591;1192;22910;-78
2021/10/14 10:16:27;;;;;;;30.00;23.70;;;;;;;9.81;69.05;101012.45;116585;1193;21901;-78
2021/10/14 10:18:59;;;;;;;23.50;19.70;;;;;;;9.82;69.13;101012.33;116906;1186;22915;-77
2021/10/14 10:21:32;;;;;;;23.30;19.30;;;;;;;9.88;69.49;101012.00;116905;1187;22397;-78
2021/10/14 10:24:01;;;;;;;;;;;;;;;9.95;69.47;101007.65;117152;1189;21885;-78
2021/10/14 10:26:33;;;;;;;22.10;17.20;;;;;;;9.96;69.87;101005.04;116799;1191;23238;-78
2021/10/14 10:29:15;;;;;;;24.00;16.80;;;;;;;10.04;69.88;101007.13;116826;1190;23484;-77
2021/10/14 10:31:48;;;;;;;22.00;18.60;;;;;;;10.13;69.70;101005.85;116520;1190;22831;-77
2021/10/14 10:34:51;;;;;;;22.00;16.40;;;;;;;10.24;69.73;100999.90;116294;1197;21891;-78
2021/10/14 10:37:34;;;;;;;18.10;15.80;;;;;;;10.32;69.42;101000.55;116263;1194;22091;-78
2021/10/14 10:40:32;;;;;;;20.80;16.90;;;;;;;10.35;68.98;100999.05;116302;1197;22687;-78
2021/10/14 10:43:12;;;;;;;20.40;17.90;;;;;;;10.37;69.04;100995.64;116277;1193;23036;-78
2021/10/14 10:45:51;;;;;;;24.70;19.30;;;;;;;10.43;69.18;100991.06;116436;1193;21920;-78
2021/10/14 10:48:38;;;;;;;20.70;17.80;;;;;;;10.51;69.30;100988.67;116731;1195;21997;-79
2021/10/14 10:51:24;;;;;;;53.30;45.50;;;;;;;10.58;68.95;100988.82;116537;1193;21979;-77
2021/10/14 10:53:54;;;;;;;26.00;19.30;;;;;;;10.59;68.63;100989.39;116856;1190;21895;-78
2021/10/14 10:56:37;;;;;;;16.60;14.60;;;;;;;10.62;68.34;100988.23;116927;1189;21898;-78
2021/10/14 10:59:08;;;;;;;35.20;31.30;;;;;;;10.64;68.31;100988.07;116880;1189;22217;-79
2021/10/14 11:01:43;;;;;;;22.60;16.30;;;;;;;10.61;67.90;100985.67;116847;1190;21983;-78
2021/10/14 11:04:13;;;;;;;15.60;13.80;;;;;;;10.58;67.82;100982.94;116881;1192;23447;-78
2021/10/14 11:06:51;;;;;;;18.40;15.70;;;;;;;10.56;67.88;100978.98;116615;1193;21973;-76
2021/10/14 11:09:26;;;;;;;17.50;14.50;;;;;;;10.56;68.20;100974.73;116852;1193;23458;-78
2021/10/14 11:12:06;;;;;;;18.90;16.70;;;;;;;10.57;68.33;100970.58;116534;1193;24941;-78
2021/10/14 11:14:41;;;;;;;19.50;15.70;;;;;;;10.57;68.30;100962.30;116548;1193;22864;-78
2021/10/14 11:17:13;;;;;;;20.70;18.60;;;;;;;10.60;68.43;100959.90;116579;1193;22989;-78
2021/10/14 11:19:43;;;;;;;;;;;;;;;10.60;68.40;100961.84;116676;1192;22644;-78
2021/10/14 11:22:16;;;;;;;15.20;13.00;;;;;;;10.54;68.51;100958.27;116558;1193;21944;-78
2021/10/14 11:24:47;;;;;;;16.70;14.90;;;;;;;10.56;68.83;100954.30;116326;1196;22030;-78
2021/10/14 11:27:20;;;;;;;19.60;15.30;;;;;;;10.65;68.94;100947.23;116536;1192;23231;-78
2021/10/14 11:29:51;;;;;;;21.30;17.00;;;;;;;10.75;68.91;100937.81;116362;1186;21975;-78
2021/10/14 11:32:31;;;;;;;19.70;16.10;;;;;;;10.82;68.92;100928.10;116352;1192;22016;-78
2021/10/14 11:35:09;;;;;;;17.70;14.80;;;;;;;10.92;68.84;100926.77;116320;1193;21903;-77